createdAt,value
2023-05-14T00:00:47.892Z,14.52
2023-05-14T00:03:20.582Z,14.72
2023-05-14T00:05:53.117Z,14.44
2023-05-14T00:08:25.559Z,14.31
2023-05-14T00:10:58.076Z,14.62
2023-05-14T00:13:30.550Z,14.48
2023-05-14T00:16:03.258Z,14.64
2023-05-14T00:18:35.804Z,14.71
2023-05-14T00:21:08.317Z,14.62
2023-05-14T00:23:40.824Z,14.56
2023-05-14T00:26:13.229Z,14.28
2023-05-14T00:28:45.762Z,14.10
2023-05-14T00:31:18.259Z,14.16
2023-05-14T00:33:50.815Z,14.26
2023-05-14T00:36:23.218Z,13.93
2023-05-14T00:38:55.953Z,13.85
2023-05-14T00:41:28.413Z,13.87
2023-05-14T00:44:00.927Z,13.79
2023-05-14T00:46:34.634Z,13.68
2023-05-14T00:49:07.148Z,13.80
2023-05-14T00:51:41.503Z,13.73
2023-05-14T00:54:22.676Z,13.68
2023-05-14T00:56:55.637Z,13.68
2023-05-14T00:59:28.132Z,13.58
2023-05-14T01:02:00.714Z,13.59
2023-05-14T01:04:35.179Z,13.46
2023-05-14T01:07:35.456Z,13.36
2023-05-14T01:10:23.531Z,13.34
2023-05-14T01:13:13.014Z,13.26
2023-05-14T01:15:48.091Z,13.23
2023-05-14T01:18:21.977Z,13.22
2023-05-14T01:20:54.649Z,13.10
2023-05-14T01:23:27.121Z,13.12
2023-05-14T01:25:59.644Z,13.15
2023-05-14T01:28:35.656Z,13.01
2023-05-14T01:31:18.350Z,13.04
2023-05-14T01:33:52.356Z,12.96
2023-05-14T01:36:25.466Z,12.93
2023-05-14T01:38:58.879Z,12.80
2023-05-14T01:41:32.834Z,12.92
2023-05-14T01:44:06.030Z,12.97
2023-05-14T01:46:38.765Z,12.85
2023-05-14T01:49:11.261Z,12.72
2023-05-14T01:51:43.948Z,12.60
2023-05-14T01:54:16.399Z,12.74
2023-05-14T01:56:48.793Z,12.73
2023-05-14T01:59:21.253Z,12.69
2023-05-14T02:01:53.839Z,12.61
2023-05-14T02:04:26.539Z,12.54
2023-05-14T02:06:59.075Z,12.52
2023-05-14T02:09:31.555Z,12.40
2023-05-14T02:12:04.267Z,12.47
2023-05-14T02:14:36.973Z,12.39
2023-05-14T02:17:09.454Z,12.42
2023-05-14T02:19:42.182Z,12.41
2023-05-14T02:22:14.596Z,12.44
2023-05-14T02:24:47.012Z,12.57
2023-05-14T02:27:19.487Z,12.54
2023-05-14T02:29:52.759Z,12.46
2023-05-14T02:32:25.418Z,12.26
2023-05-14T02:34:57.883Z,12.58
2023-05-14T02:37:30.387Z,12.43
2023-05-14T02:40:04.149Z,12.66
2023-05-14T02:42:36.538Z,12.63
2023-05-14T02:45:09.256Z,12.47
2023-05-14T02:47:42.156Z,12.51
2023-05-14T02:50:14.607Z,12.55
2023-05-14T02:52:47.065Z,12.54
2023-05-14T02:55:19.688Z,12.41
2023-05-14T02:57:53.241Z,12.52
2023-05-14T03:00:25.840Z,12.39
2023-05-14T03:02:58.845Z,12.19
2023-05-14T03:05:31.608Z,12.19
2023-05-14T03:08:04.041Z,12.12
2023-05-14T03:10:37.057Z,12.07
2023-05-14T03:13:09.507Z,12.23
2023-05-14T03:15:41.957Z,11.97
2023-05-14T03:18:15.034Z,11.97
2023-05-14T03:20:47.814Z,11.90
2023-05-14T03:23:20.251Z,11.96
2023-05-14T03:25:52.747Z,11.95
2023-05-14T03:28:25.863Z,11.84
2023-05-14T03:30:58.522Z,11.77
2023-05-14T03:33:31.184Z,11.70
2023-05-14T03:36:03.839Z,11.69
2023-05-14T03:38:36.818Z,11.59
2023-05-14T03:41:09.238Z,11.48
2023-05-14T03:43:41.676Z,11.26
2023-05-14T03:46:14.088Z,11.38
2023-05-14T03:48:46.554Z,11.24
2023-05-14T03:51:19.095Z,11.27
2023-05-14T03:53:51.494Z,11.32
2023-05-14T03:56:24.862Z,11.29
2023-05-14T03:58:57.332Z,11.37
2023-05-14T04:01:29.775Z,11.09
2023-05-14T04:04:02.249Z,10.97
2023-05-14T04:06:34.788Z,11.08
2023-05-14T04:09:07.428Z,10.91
2023-05-14T04:11:39.892Z,10.84
2023-05-14T04:14:12.292Z,11.02
2023-05-14T04:16:44.735Z,11.04
2023-05-14T04:19:17.362Z,11.10
2023-05-14T04:21:49.984Z,10.66
2023-05-14T04:24:22.551Z,10.75
2023-05-14T04:26:54.989Z,10.81
2023-05-14T04:29:27.450Z,10.64
2023-05-14T04:32:00.451Z,10.67
2023-05-14T04:34:32.972Z,10.87
2023-05-14T04:37:05.488Z,10.70
2023-05-14T04:39:38.332Z,11.01
2023-05-14T04:42:10.869Z,11.07
2023-05-14T04:44:43.309Z,11.18
2023-05-14T04:47:15.765Z,11.09
2023-05-14T04:49:48.451Z,11.03
2023-05-14T04:52:20.970Z,11.13
2023-05-14T04:54:53.550Z,10.78
2023-05-14T04:57:26.068Z,11.04
2023-05-14T04:59:58.459Z,10.97
2023-05-14T05:02:30.935Z,11.02
2023-05-14T05:05:04.241Z,11.17
2023-05-14T05:07:36.749Z,11.16
2023-05-14T05:10:09.533Z,11.09
2023-05-14T05:12:42.032Z,10.98
2023-05-14T05:15:14.596Z,11.12
2023-05-14T05:17:47.138Z,11.12
2023-05-14T05:20:19.611Z,11.46
2023-05-14T05:22:52.235Z,11.43
2023-05-14T05:25:24.706Z,11.53
2023-05-14T05:27:57.123Z,11.54
2023-05-14T05:30:30.202Z,11.71
2023-05-14T05:33:02.771Z,11.85
2023-05-14T05:35:35.324Z,11.90
2023-05-14T05:38:07.791Z,11.71
2023-05-14T05:40:40.240Z,12.06
2023-05-14T05:43:13.834Z,12.23
2023-05-14T05:45:46.324Z,12.19
2023-05-14T05:48:19.001Z,12.22
2023-05-14T05:50:51.859Z,12.04
2023-05-14T05:53:24.306Z,12.14
2023-05-14T05:55:56.737Z,12.31
2023-05-14T05:58:29.544Z,12.27
2023-05-14T06:01:02.453Z,12.18
2023-05-14T06:03:35.385Z,11.83
2023-05-14T06:06:08.112Z,12.29
2023-05-14T06:08:40.600Z,12.19
2023-05-14T06:11:13.148Z,12.11
2023-05-14T06:13:45.587Z,12.05
2023-05-14T06:16:18.173Z,11.76
2023-05-14T06:18:52.299Z,11.93
2023-05-14T06:21:24.993Z,12.32
2023-05-14T06:23:57.456Z,12.21
2023-05-14T06:26:29.919Z,12.05
2023-05-14T06:29:02.449Z,12.44
2023-05-14T06:31:34.846Z,12.36
2023-05-14T06:34:08.096Z,12.56
2023-05-14T06:36:40.674Z,12.69
2023-05-14T06:39:13.235Z,12.89
2023-05-14T06:41:45.685Z,12.83
2023-05-14T06:44:19.509Z,12.97
2023-05-14T06:46:51.998Z,13.05
2023-05-14T06:49:24.468Z,12.86
2023-05-14T06:51:56.900Z,12.70
2023-05-14T06:54:30.050Z,13.21
2023-05-14T06:57:02.460Z,13.04
2023-05-14T06:59:34.866Z,13.38
2023-05-14T07:02:07.348Z,13.60
2023-05-14T07:04:39.859Z,13.65
2023-05-14T07:07:15.385Z,13.78
2023-05-14T07:09:48.248Z,13.88
2023-05-14T07:12:20.754Z,13.63
2023-05-14T07:14:53.327Z,13.95
2023-05-14T07:17:26.045Z,13.87
2023-05-14T07:19:58.553Z,14.12
2023-05-14T07:22:30.988Z,14.11
2023-05-14T07:25:03.486Z,14.02
2023-05-14T07:27:35.961Z,14.31
2023-05-14T07:30:08.738Z,14.38
2023-05-14T07:32:41.161Z,14.72
2023-05-14T07:35:14.163Z,14.78
2023-05-14T07:37:46.798Z,15.10
2023-05-14T07:40:19.376Z,15.04
2023-05-14T07:42:51.805Z,14.74
2023-05-14T07:45:24.288Z,14.46
2023-05-14T07:47:56.723Z,14.79
2023-05-14T07:50:29.160Z,14.66
2023-05-14T07:53:01.575Z,15.18
2023-05-14T07:55:33.972Z,15.27
2023-05-14T07:58:06.611Z,15.40
2023-05-14T08:00:39.169Z,15.41
2023-05-14T08:03:11.631Z,15.72
2023-05-14T08:05:44.138Z,15.58
2023-05-14T08:08:17.054Z,15.83
2023-05-14T08:10:49.558Z,15.96
2023-05-14T08:13:22.118Z,15.78
2023-05-14T08:15:54.806Z,16.39
2023-05-14T08:18:27.214Z,16.55
2023-05-14T08:20:59.685Z,16.62
2023-05-14T08:23:34.121Z,16.93
2023-05-14T08:26:06.664Z,17.00
2023-05-14T08:28:39.321Z,16.96
2023-05-14T08:31:17.477Z,16.59
2023-05-14T08:33:49.950Z,16.96
2023-05-14T08:36:22.487Z,16.93
2023-05-14T08:38:55.272Z,16.98
2023-05-14T08:41:27.659Z,16.40
2023-05-14T08:44:20.549Z,16.88
2023-05-14T08:46:54.633Z,16.36
2023-05-14T08:49:42.644Z,16.61
2023-05-14T08:52:18.003Z,16.83
2023-05-14T08:54:52.693Z,16.29
2023-05-14T08:57:26.571Z,16.61
2023-05-14T08:59:59.230Z,17.05
2023-05-14T09:02:31.733Z,16.91
2023-05-14T09:05:04.371Z,17.25
2023-05-14T09:07:36.837Z,17.13
2023-05-14T09:10:10.324Z,17.35
2023-05-14T09:12:42.811Z,17.62
2023-05-14T09:15:15.345Z,17.26
2023-05-14T09:17:50.969Z,17.58
2023-05-14T09:20:25.111Z,18.21
2023-05-14T09:22:59.979Z,18.53
2023-05-14T09:25:32.964Z,18.50
2023-05-14T09:28:08.421Z,18.73
2023-05-14T09:30:41.169Z,18.66
2023-05-14T09:33:25.882Z,18.61
2023-05-14T09:35:59.880Z,18.31
2023-05-14T09:38:33.876Z,18.57
2023-05-14T09:41:06.346Z,18.74
2023-05-14T09:43:38.820Z,18.29
2023-05-14T09:46:11.308Z,18.25
2023-05-14T09:48:43.804Z,18.55
2023-05-14T09:51:17.643Z,18.63
2023-05-14T09:53:52.861Z,18.48
2023-05-14T09:56:25.282Z,18.47
2023-05-14T09:58:57.705Z,19.06
2023-05-14T10:01:31.038Z,19.20
2023-05-14T10:04:07.858Z,19.11
2023-05-14T10:06:42.137Z,19.13
2023-05-14T10:09:17.451Z,19.41
2023-05-14T10:11:53.874Z,19.35
2023-05-14T10:14:32.709Z,19.42
2023-05-14T10:17:06.385Z,19.80
2023-05-14T10:19:40.895Z,19.87
2023-05-14T10:22:17.969Z,19.91
2023-05-14T10:24:54.187Z,19.65
2023-05-14T10:27:26.901Z,19.68
2023-05-14T10:29:59.334Z,19.53
2023-05-14T10:32:33.118Z,19.86
2023-05-14T10:35:27.197Z,19.68
2023-05-14T10:37:59.650Z,20.23
2023-05-14T10:40:32.141Z,20.45
2023-05-14T10:43:05.156Z,20.33
2023-05-14T10:45:37.687Z,20.13
2023-05-14T10:48:10.600Z,20.74
2023-05-14T10:50:43.494Z,20.71
2023-05-14T10:53:16.063Z,20.59
2023-05-14T10:55:48.525Z,20.25
2023-05-14T10:58:21.074Z,20.12
2023-05-14T11:00:55.952Z,20.29
2023-05-14T11:03:32.646Z,20.65
2023-05-14T11:06:07.041Z,20.65
2023-05-14T11:08:40.235Z,20.89
2023-05-14T11:11:12.855Z,20.84
2023-05-14T11:13:45.845Z,21.06
2023-05-14T11:16:23.544Z,20.26
2023-05-14T11:19:04.384Z,20.66
2023-05-14T11:21:36.926Z,20.82
2023-05-14T11:24:09.468Z,20.48
2023-05-14T11:26:41.995Z,20.77
2023-05-14T11:29:14.489Z,20.42
2023-05-14T11:31:47.624Z,20.55
2023-05-14T11:34:20.073Z,21.25
2023-05-14T11:36:52.510Z,20.70
2023-05-14T11:39:24.956Z,21.25
2023-05-14T11:41:58.291Z,21.40
2023-05-14T11:44:31.929Z,21.53
2023-05-14T11:47:05.060Z,21.33
2023-05-14T11:49:37.965Z,21.47
2023-05-14T11:52:12.983Z,21.53
2023-05-14T11:54:46.016Z,21.60
2023-05-14T11:57:21.075Z,21.66
2023-05-14T11:59:57.655Z,21.54
2023-05-14T12:02:30.316Z,22.07
2023-05-14T12:05:03.049Z,22.24
2023-05-14T12:07:36.101Z,22.52
2023-05-14T12:10:08.962Z,22.81
2023-05-14T12:12:45.992Z,22.56
2023-05-14T12:15:18.454Z,23.01
2023-05-14T12:17:51.781Z,23.05
2023-05-14T12:20:26.164Z,22.63
2023-05-14T12:22:59.062Z,22.59
2023-05-14T12:25:31.562Z,22.75
2023-05-14T12:28:14.874Z,22.95
2023-05-14T12:30:47.411Z,23.15
2023-05-14T12:33:22.851Z,23.50
2023-05-14T12:36:09.998Z,23.44
2023-05-14T12:38:46.392Z,24.12
2023-05-14T12:41:18.880Z,24.20
2023-05-14T12:43:51.509Z,24.21
2023-05-14T12:46:27.040Z,24.17
2023-05-14T12:48:59.696Z,23.97
2023-05-14T12:51:32.572Z,22.95
2023-05-14T12:54:05.055Z,22.78
2023-05-14T12:56:39.035Z,23.32
2023-05-14T12:59:11.541Z,23.43
2023-05-14T13:01:43.982Z,23.41
2023-05-14T13:04:16.585Z,23.71
2023-05-14T13:06:49.162Z,24.51
2023-05-14T13:09:30.631Z,23.86
2023-05-14T13:12:03.027Z,24.22
2023-05-14T13:14:36.408Z,24.61
2023-05-14T13:17:08.948Z,24.50
2023-05-14T13:19:41.514Z,24.50
2023-05-14T13:22:14.569Z,24.19
2023-05-14T13:24:47.020Z,24.35
2023-05-14T13:27:19.434Z,24.43
2023-05-14T13:29:52.061Z,23.77
2023-05-14T13:32:25.880Z,23.73
2023-05-14T13:34:58.395Z,23.39
2023-05-14T13:37:30.854Z,23.31
2023-05-14T13:40:04.423Z,23.42
2023-05-14T13:42:37.533Z,22.83
2023-05-14T13:45:11.627Z,22.53
2023-05-14T13:47:44.404Z,22.92
2023-05-14T13:50:17.035Z,23.33
2023-05-14T13:52:49.701Z,23.27
2023-05-14T13:55:24.541Z,23.39
2023-05-14T13:57:57.361Z,23.86
2023-05-14T14:00:29.796Z,24.48
2023-05-14T14:03:02.428Z,23.82
2023-05-14T14:05:35.965Z,24.34
2023-05-14T14:08:22.771Z,24.69
2023-05-14T14:10:56.128Z,24.56
2023-05-14T14:13:29.524Z,24.54
2023-05-14T14:16:03.502Z,24.56
2023-05-14T14:18:35.997Z,24.33
2023-05-14T14:21:09.308Z,24.51
2023-05-14T14:23:41.865Z,23.09
2023-05-14T14:26:14.446Z,23.83
2023-05-14T14:28:47.174Z,23.39
2023-05-14T14:31:20.835Z,23.59
2023-05-14T14:33:53.321Z,23.93
2023-05-14T14:36:25.714Z,23.53
2023-05-14T14:38:58.322Z,23.11
2023-05-14T14:41:30.808Z,23.89
2023-05-14T14:44:03.464Z,23.10
2023-05-14T14:46:36.121Z,23.09
2023-05-14T14:49:09.135Z,23.56
2023-05-14T14:51:42.375Z,22.97
2023-05-14T14:54:14.862Z,23.01
2023-05-14T14:56:49.122Z,22.52
2023-05-14T14:59:21.573Z,22.64
2023-05-14T15:01:53.946Z,22.38
2023-05-14T15:04:26.544Z,22.46
2023-05-14T15:06:59.209Z,22.42
2023-05-14T15:09:32.287Z,22.07
2023-05-14T15:12:09.418Z,22.23
2023-05-14T15:14:42.028Z,22.37
2023-05-14T15:17:14.545Z,22.58
2023-05-14T15:25:49.549Z,22.27
2023-05-14T15:28:26.892Z,21.83
2023-05-14T15:31:02.689Z,21.56
2023-05-14T15:33:38.386Z,22.47
2023-05-14T15:36:15.543Z,22.30
2023-05-14T15:38:50.867Z,21.93
2023-05-14T15:41:36.899Z,21.55
2023-05-14T15:44:15.748Z,21.39
2023-05-14T15:46:57.815Z,21.65
2023-05-14T15:49:32.351Z,22.07
2023-05-14T15:52:05.356Z,21.86
2023-05-14T15:54:53.220Z,22.02
2023-05-14T15:57:28.793Z,21.99
2023-05-14T16:00:05.016Z,22.24
2023-05-14T16:02:41.442Z,22.20
2023-05-14T16:05:27.440Z,22.23
2023-05-14T16:08:03.005Z,22.75
2023-05-14T16:10:46.644Z,22.44
2023-05-14T16:13:25.171Z,22.39
2023-05-14T16:15:59.684Z,22.44
2023-05-14T16:18:33.692Z,22.55
2023-05-14T16:21:07.426Z,22.49
2023-05-14T16:23:39.983Z,21.89
2023-05-14T16:26:12.465Z,21.85
2023-05-14T16:28:45.006Z,22.06
2023-05-14T16:31:17.518Z,21.97
2023-05-14T16:33:49.960Z,21.88
2023-05-14T16:36:26.453Z,21.66
2023-05-14T16:41:37.018Z,21.03
2023-05-14T16:44:12.502Z,21.44
2023-05-14T16:46:45.038Z,20.97
2023-05-14T16:49:17.539Z,20.92
2023-05-14T16:51:53.044Z,21.40
2023-05-14T16:54:25.647Z,21.40
2023-05-14T16:56:58.125Z,21.26
2023-05-14T16:59:30.654Z,21.27
2023-05-14T17:02:03.518Z,21.31
2023-05-14T17:04:39.337Z,21.23
2023-05-14T17:07:14.720Z,21.15
2023-05-14T17:09:47.181Z,20.74
2023-05-14T17:12:19.698Z,20.81
2023-05-14T17:14:52.795Z,20.06
2023-05-14T17:17:25.367Z,20.23
2023-05-14T17:19:58.032Z,20.00
2023-05-14T17:22:30.515Z,19.67
2023-05-14T17:25:03.322Z,19.48
2023-05-14T17:27:36.202Z,19.36
2023-05-14T17:30:09.133Z,19.11
2023-05-14T17:32:41.781Z,18.93
2023-05-14T17:35:14.357Z,19.04
2023-05-14T17:37:46.852Z,18.86
2023-05-14T17:40:19.446Z,18.60
2023-05-14T17:42:51.916Z,18.41
2023-05-14T17:45:24.813Z,18.67
2023-05-14T17:47:57.676Z,18.57
2023-05-14T17:50:30.307Z,18.62
2023-05-14T17:53:02.723Z,18.30
2023-05-14T17:55:42.431Z,18.07
2023-05-14T17:58:15.944Z,18.01
2023-05-14T18:00:50.675Z,17.99
2023-05-14T18:03:23.186Z,17.72
2023-05-14T18:05:55.786Z,17.71
2023-05-14T18:08:28.267Z,17.44
2023-05-14T18:11:00.811Z,17.41
2023-05-14T18:13:33.363Z,17.35
2023-05-14T18:16:05.880Z,17.55
2023-05-14T18:18:38.425Z,17.20
2023-05-14T18:21:10.921Z,17.14
2023-05-14T18:23:43.452Z,17.16
2023-05-14T18:26:16.127Z,16.89
2023-05-14T18:28:48.970Z,16.86
2023-05-14T18:31:21.531Z,16.46
2023-05-14T18:33:54.269Z,16.71
2023-05-14T18:36:26.757Z,16.55
2023-05-14T18:38:59.226Z,16.34
2023-05-14T18:41:31.699Z,16.30
2023-05-14T18:44:04.221Z,15.92
2023-05-14T18:46:36.922Z,16.14
2023-05-14T18:49:09.458Z,16.23
2023-05-14T18:51:42.064Z,15.83
2023-05-14T18:54:14.581Z,15.82
2023-05-14T18:56:47.774Z,15.99
2023-05-14T18:59:20.539Z,15.79
2023-05-14T19:01:53.089Z,15.78
2023-05-14T19:04:26.467Z,15.57
2023-05-14T19:06:58.921Z,15.59
2023-05-14T19:09:31.425Z,15.58
2023-05-14T19:12:04.100Z,15.10
2023-05-14T19:14:36.597Z,15.28
2023-05-14T19:17:09.057Z,15.16
2023-05-14T19:19:41.699Z,14.99
2023-05-14T19:22:14.090Z,15.11
2023-05-14T19:24:46.534Z,14.99
2023-05-14T19:27:18.955Z,15.01
2023-05-14T19:29:51.555Z,15.01
2023-05-14T19:32:23.970Z,14.88
2023-05-14T19:34:56.577Z,14.83
2023-05-14T19:37:31.853Z,14.60
2023-05-14T19:40:04.858Z,14.35
2023-05-14T19:42:37.275Z,14.25
2023-05-14T19:45:10.185Z,14.58
2023-05-14T19:47:42.944Z,14.45
2023-05-14T19:50:15.887Z,14.46
2023-05-14T19:52:48.467Z,14.32
2023-05-14T19:55:21.034Z,14.33
2023-05-14T19:57:53.493Z,14.29
2023-05-14T20:00:26.487Z,14.24
2023-05-14T20:02:59.719Z,14.06
2023-05-14T20:05:34.221Z,14.23
2023-05-14T20:08:09.318Z,14.16
2023-05-14T20:10:44.502Z,14.09
2023-05-14T20:13:16.938Z,14.20
2023-05-14T20:15:49.487Z,13.95
2023-05-14T20:18:22.073Z,13.99
2023-05-14T20:20:54.796Z,13.74
2023-05-14T20:23:30.106Z,13.68
2023-05-14T20:26:04.112Z,13.70
2023-05-14T20:28:36.642Z,13.66
2023-05-14T20:31:09.650Z,13.42
2023-05-14T20:33:42.302Z,13.78
2023-05-14T20:36:16.748Z,13.52
2023-05-14T20:38:49.297Z,13.42
2023-05-14T20:41:22.457Z,13.14
2023-05-14T20:43:54.901Z,13.45
2023-05-14T20:46:30.083Z,13.30
2023-05-14T20:49:02.619Z,13.36
2023-05-14T20:51:35.061Z,13.29
2023-05-14T20:54:07.446Z,13.05
2023-05-14T20:56:39.894Z,13.04
2023-05-14T20:59:12.329Z,13.13
2023-05-14T21:01:47.137Z,13.14
2023-05-14T21:04:19.780Z,13.03
2023-05-14T21:06:52.816Z,12.90
2023-05-14T21:09:27.138Z,13.04
2023-05-14T21:11:59.841Z,12.89
2023-05-14T21:14:32.350Z,12.61
2023-05-14T21:17:05.125Z,12.78
2023-05-14T21:19:37.654Z,12.82
2023-05-14T21:22:10.242Z,12.73
2023-05-14T21:24:44.970Z,12.75
2023-05-14T21:27:17.484Z,12.70
2023-05-14T21:29:49.937Z,12.67
2023-05-14T21:32:22.502Z,12.66
2023-05-14T21:34:55.187Z,12.49
2023-05-14T21:37:27.904Z,12.32
2023-05-14T21:40:00.580Z,12.47
2023-05-14T21:42:33.067Z,12.34
2023-05-14T21:45:06.238Z,12.47
2023-05-14T21:47:39.213Z,12.50
2023-05-14T21:50:13.017Z,12.34
2023-05-14T21:52:48.258Z,12.22
2023-05-14T21:55:20.934Z,12.21
2023-05-14T21:57:53.519Z,12.38
2023-05-14T22:00:26.027Z,12.24
2023-05-14T22:02:58.876Z,12.42
2023-05-14T22:05:31.384Z,12.26
2023-05-14T22:08:03.989Z,12.20
2023-05-14T22:10:36.693Z,12.05
2023-05-14T22:13:09.106Z,11.96
2023-05-14T22:15:41.555Z,12.08
2023-05-14T22:18:15.489Z,11.95
2023-05-14T22:20:48.403Z,12.12
2023-05-14T22:23:20.873Z,11.95
2023-05-14T22:25:53.404Z,11.91
2023-05-14T22:28:25.870Z,12.01
2023-05-14T22:30:59.931Z,11.96
2023-05-14T22:33:33.193Z,11.82
2023-05-14T22:36:06.958Z,11.91
2023-05-14T22:38:41.182Z,11.91
2023-05-14T22:41:13.756Z,12.07
2023-05-14T22:43:48.586Z,11.72
2023-05-14T22:46:21.334Z,11.81
2023-05-14T22:48:53.859Z,11.61
2023-05-14T22:51:26.324Z,11.53
2023-05-14T22:53:58.701Z,11.76
2023-05-14T22:56:31.614Z,11.72
2023-05-14T22:59:04.442Z,11.53
2023-05-14T23:01:36.904Z,11.50
2023-05-14T23:04:09.521Z,11.49
2023-05-14T23:06:41.984Z,11.63
2023-05-14T23:09:14.398Z,11.60
2023-05-14T23:11:46.964Z,11.45
2023-05-14T23:14:19.599Z,11.50
2023-05-14T23:16:52.087Z,11.45
2023-05-14T23:19:24.652Z,11.34
2023-05-14T23:21:58.302Z,11.21
2023-05-14T23:24:30.851Z,11.23
2023-05-14T23:27:03.387Z,11.26
2023-05-14T23:29:35.821Z,10.93
2023-05-14T23:32:09.539Z,11.02
2023-05-14T23:34:41.958Z,10.82
2023-05-14T23:37:14.576Z,10.85
2023-05-14T23:39:47.140Z,10.92
2023-05-14T23:42:20.291Z,10.98
2023-05-14T23:44:52.689Z,10.92
2023-05-14T23:47:25.270Z,10.91
2023-05-14T23:49:57.886Z,10.93
2023-05-14T23:52:30.392Z,10.75
2023-05-14T23:55:03.017Z,10.63
2023-05-14T23:57:36.005Z,10.74
